METAR Data
IDs: Format: Raw Decoded Include TAF

Data at: 1528 UTC 24 Aug 2019

PAVA 241456Z AUTO 32007KT 10SM OVC038 11/09 A2987 RMK AO2 SLP200 6//// T01060094 53004 PNO $
PAVA 241356Z AUTO 32007KT 10SM OVC036 11/09 A2986 RMK AO2 SLP197 T01060094 PNO $
PAVA 241256Z AUTO 33007KT 10SM OVC036 10/10 A2986 RMK AO2 SLP196 T01000100 PNO $
PAVA 241156Z AUTO 33007KT 10SM OVC036 11/10 A2986 RMK AO2 SLP195 6//// 7//// T01060100 10117 20094 51004 PNO $
PAVA 241056Z AUTO 34005KT 10SM OVC035 11/09 A2986 RMK AO2 SLP195 T01060094 PNO $
PAVA 240956Z AUTO 35009KT 10SM FEW007 OVC037 11/09 A2986 RMK AO2 SLP194 T01060094 PNO $
PAVA 240856Z AUTO 32006KT 10SM CLR 09/09 A2985 RMK AO2 SLP192 6//// T00940089 53009 PNO $
PAVA 240823Z AUTO 35008KT 10SM SCT028 10/08 A2984 RMK AO2 PNO $
PAVA 240756Z AUTO 34010KT 10SM OVC024 11/09 A2984 RMK AO2 SLP189 T01110089 401440072 PNO $
PAVA 240656Z AUTO 35009KT 10SM BKN020 OVC027 12/09 A2983 RMK AO2 SLP185 T01170094 PNO $
PAVA 240617Z AUTO 35009KT 6SM BR FEW016 BKN021 BKN027 11/09 A2982 RMK AO2 PNO $
PAVA 240556Z AUTO 34007KT 10SM FEW032 11/08 A2982 RMK AO2 SLP182 6//// T01060078 10144 20106 53005 PNO $
PAVA 240456Z AUTO 35011KT 10SM SCT031 13/06 A2981 RMK AO2 SLP180 T01280061 PNO $
PAVA 240406Z AUTO 34013KT 10SM OVC031 13/07 A2981 RMK AO2 PNO $
PAVA 240356Z AUTO 34017KT 9SM OVC029 13/07 A2981 RMK AO2 SLP178 T01330067 PNO $
PAVA 240256Z AUTO 36013KT 5SM HZ BKN036 13/07 A2980 RMK AO2 SLP177 6//// T01330072 56003 PNO $
PAVA 240156Z AUTO 36012KT 10SM BKN038 14/07 A2981 RMK AO2 SLP177 T01440067 PNO $
PAVA 240056Z AUTO 36008KT 10SM OVC039 14/07 A2981 RMK AO2 SLP178 T01390067 PNO $
PAVA 232356Z AUTO 34010KT 10SM OVC044 14/08 A2981 RMK AO2 SLP180 6//// T01390078 10144 20106 53000 PNO $
PAVA 232256Z AUTO 02012KT 10SM SCT025 BKN037 14/08 A2981 RMK AO2 SLP179 T01390083 PNO $
PAVA 232227Z AUTO 02007KT 7SM SCT024 SCT031 OVC039 13/08 A2981 RMK AO2 PNO $
PAVA 232156Z AUTO 34008KT 10SM BKN028 BKN037 13/07 A2981 RMK AO2 SLP179 T01280072 PNO $
PAVA 232140Z AUTO 34008KT 10SM BKN028 13/07 A2981 RMK AO2 PNO $
PAVA 232056Z AUTO 33010KT 10SM CLR 12/07 A2981 RMK AO2 SLP179 6//// T01220067 51002 PNO $
PAVA 231956Z AUTO 35016KT 10SM FEW044 12/07 A2981 RMK AO2 SLP179 T01170072 PNO $
PAVA 231856Z AUTO 35014KT 10SM FEW015 SCT037 OVC046 11/08 A2981 RMK AO2 SLP178 T01110083 PNO $
PAVA 231846Z AUTO 35015KT 10SM FEW017 BKN038 OVC046 11/08 A2981 RMK AO2 PNO $
PAVA 231811Z AUTO 35013KT 10SM SCT016 BKN022 OVC050 11/09 A2981 RMK AO2 PNO $
PAVA 231756Z AUTO 35014KT 10SM FEW022 OVC050 11/09 A2980 RMK AO2 SLP177 6//// T01060089 10111 20083 51008 PNO $
PAVA 231656Z AUTO 36013KT 10SM OVC050 11/09 A2980 RMK AO2 SLP174 T01060089 PNO $
PAVA 231556Z AUTO 34008KT 10SM OVC055 10/09 A2979 RMK AO2 SLP173 T01000089 PNO $
PAVA 231456Z AUTO 36012KT 10SM OVC055 10/08 A2978 RMK AO2 SLP169 6//// T01000083 51004 PNO $
PAVA 231356Z AUTO 35007KT 10SM CLR 09/08 A2978 RMK AO2 SLP168 T00940083 PNO $
PAVA 231256Z AUTO 31005KT 10SM FEW023 08/08 A2977 RMK AO2 SLP165 T00830078 PNO $
PAVA 231156Z AUTO 30004KT 10SM FEW028 08/07 A2977 RMK AO2 SLP164 6//// 7//// T00830072 10111 20072 58001 PNO $
PAVA 231056Z AUTO 35005KT 10SM CLR 08/07 A2977 RMK AO2 SLP166 T00780067 PNO $
PAVA 230956Z AUTO 32003KT 10SM CLR 08/06 A2977 RMK AO2 SLP165 T00780061 PNO $
PAVA 230856Z AUTO 02006KT 10SM CLR 09/07 A2977 RMK AO2 SLP166 6//// T00890067 53008 PNO $
PAVA 230756Z AUTO 02011KT 10SM CLR 09/07 A2976 RMK AO2 SLP161 T00940067 401500072 PNO $
PAVA 230656Z AUTO 01010KT 10SM CLR 11/07 A2976 RMK AO2 SLP161 T01060067 PNO $
PAVA 230556Z AUTO 36015KT 10SM CLR 11/07 A2975 RMK AO2 SLP157 6//// T01110072 10150 20111 53009 PNO $
PAVA 230456Z AUTO 35018G22KT 10SM CLR 12/08 A2974 RMK AO2 SLP154 T01220078 PNO $
PAVA 230356Z AUTO 34016G23KT 9SM BKN070 13/08 A2973 RMK AO2 SLP151 T01280083 PNO $